createdAt,value
2023-04-16T00:00:36.630Z,66.34
2023-04-16T00:03:26.188Z,66.53
2023-04-16T00:05:58.549Z,66.58
2023-04-16T00:08:27.831Z,66.64
2023-04-16T00:10:57.170Z,66.62
2023-04-16T00:13:27.988Z,67.01
2023-04-16T00:15:57.621Z,67.18
2023-04-16T00:18:28.035Z,67.03
2023-04-16T00:20:57.137Z,67.25
2023-04-16T00:23:27.334Z,67.38
2023-04-16T00:26:00.396Z,67.39
2023-04-16T00:28:30.552Z,67.53
2023-04-16T00:30:59.857Z,67.64
2023-04-16T00:33:30.581Z,67.51
2023-04-16T00:35:59.886Z,67.63
2023-04-16T00:38:30.858Z,67.67
2023-04-16T00:41:00.284Z,67.91
2023-04-16T00:43:31.202Z,68.22
2023-04-16T00:46:00.646Z,68.58
2023-04-16T00:48:32.234Z,68.91
2023-04-16T00:51:02.137Z,68.92
2023-04-16T00:53:32.132Z,68.82
2023-04-16T00:56:06.212Z,69.00
2023-04-16T00:58:36.102Z,68.93
2023-04-16T01:01:06.456Z,69.02
2023-04-16T01:03:40.535Z,68.79
2023-04-16T01:06:10.564Z,68.64
2023-04-16T01:08:41.927Z,68.64
2023-04-16T01:11:12.584Z,68.88
2023-04-16T01:13:42.762Z,69.09
2023-04-16T01:16:13.576Z,69.51
2023-04-16T01:18:43.585Z,69.52
2023-04-16T01:21:13.695Z,69.83
2023-04-16T01:23:43.816Z,69.76
2023-04-16T01:26:13.926Z,69.71
2023-04-16T01:28:44.575Z,69.64
2023-04-16T01:31:15.206Z,69.68
2023-04-16T01:33:54.269Z,69.52
2023-04-16T01:36:24.162Z,69.55
2023-04-16T01:38:53.997Z,69.54
2023-04-16T01:41:23.908Z,69.49
2023-04-16T01:43:56.257Z,69.73
2023-04-16T01:46:30.099Z,69.72
2023-04-16T01:49:03.282Z,69.88
2023-04-16T01:51:33.346Z,69.69
2023-04-16T01:54:02.755Z,69.95
2023-04-16T01:56:34.332Z,69.82
2023-04-16T01:59:04.519Z,69.98
2023-04-16T02:01:39.869Z,70.02
2023-04-16T02:04:10.476Z,69.93
2023-04-16T02:06:41.470Z,69.79
2023-04-16T02:09:11.517Z,69.84
2023-04-16T02:11:44.432Z,69.78
2023-04-16T02:14:14.829Z,69.86
2023-04-16T02:16:46.102Z,70.16
2023-04-16T02:19:54.842Z,69.91
2023-04-16T02:22:26.051Z,70.06
2023-04-16T02:24:55.952Z,70.10
2023-04-16T02:27:25.136Z,70.29
2023-04-16T02:29:57.150Z,70.28
2023-04-16T02:32:27.383Z,70.18
2023-04-16T02:34:57.871Z,70.44
2023-04-16T02:37:27.767Z,70.30
2023-04-16T02:39:58.625Z,70.29
2023-04-16T02:42:28.950Z,70.34
2023-04-16T02:44:59.054Z,70.54
2023-04-16T02:47:28.866Z,70.54
2023-04-16T02:49:58.869Z,70.43
2023-04-16T02:52:28.611Z,70.59
2023-04-16T02:54:58.369Z,70.51
2023-04-16T02:57:28.257Z,70.51
2023-04-16T02:59:58.051Z,70.62
2023-04-16T03:02:28.127Z,70.59
2023-04-16T03:04:58.164Z,70.77
2023-04-16T03:07:27.961Z,70.90
2023-04-16T03:09:57.790Z,70.50
2023-04-16T03:12:27.858Z,70.83
2023-04-16T03:14:58.288Z,70.79
2023-04-16T03:17:28.571Z,70.93
2023-04-16T03:19:58.377Z,71.02
2023-04-16T03:22:28.586Z,71.05
2023-04-16T03:24:58.312Z,71.03
2023-04-16T03:27:27.937Z,71.07
2023-04-16T03:29:58.737Z,71.23
2023-04-16T03:32:28.322Z,71.20
2023-04-16T03:34:59.003Z,71.05
2023-04-16T03:37:29.195Z,71.50
2023-04-16T03:39:58.426Z,71.63
2023-04-16T03:42:28.082Z,71.78
2023-04-16T03:45:00.369Z,71.69
2023-04-16T03:47:31.168Z,71.50
2023-04-16T03:50:03.164Z,71.68
2023-04-16T03:52:32.834Z,71.92
2023-04-16T03:55:04.707Z,71.98
2023-04-16T03:57:35.203Z,72.35
2023-04-16T04:00:10.234Z,71.84
2023-04-16T04:02:54.549Z,72.18
2023-04-16T04:05:25.250Z,72.28
2023-04-16T04:07:54.680Z,72.22
2023-04-16T04:10:24.093Z,72.32
2023-04-16T04:12:53.840Z,72.42
2023-04-16T04:15:23.210Z,72.92
2023-04-16T04:17:53.111Z,72.73
2023-04-16T04:20:22.728Z,72.57
2023-04-16T04:22:52.616Z,72.65
2023-04-16T04:25:23.998Z,72.71
2023-04-16T04:27:54.405Z,72.44
2023-04-16T04:30:23.862Z,72.70
2023-04-16T04:32:53.340Z,72.90
2023-04-16T04:35:23.910Z,73.06
2023-04-16T04:37:53.232Z,73.00
2023-04-16T04:40:22.947Z,73.02
2023-04-16T04:42:52.673Z,72.83
2023-04-16T04:45:28.510Z,72.95
2023-04-16T04:48:00.255Z,73.12
2023-04-16T04:50:29.724Z,73.36
2023-04-16T04:52:59.858Z,73.44
2023-04-16T04:55:29.473Z,73.56
2023-04-16T04:58:02.667Z,73.62
2023-04-16T05:00:32.968Z,73.75
2023-04-16T05:03:06.824Z,73.74
2023-04-16T05:05:36.508Z,73.67
2023-04-16T05:08:06.308Z,73.56
2023-04-16T05:10:36.321Z,73.63
2023-04-16T05:13:06.011Z,73.88
2023-04-16T05:15:35.395Z,73.94
2023-04-16T05:18:05.237Z,73.94
2023-04-16T05:20:34.980Z,74.44
2023-04-16T05:23:04.814Z,74.55
2023-04-16T05:25:33.374Z,74.43
2023-04-16T05:28:03.086Z,74.43
2023-04-16T05:30:32.769Z,74.25
2023-04-16T05:33:02.304Z,73.91
2023-04-16T05:35:31.511Z,73.88
2023-04-16T05:38:00.972Z,74.00
2023-04-16T05:40:30.541Z,73.97
2023-04-16T05:42:59.888Z,73.81
2023-04-16T05:45:29.190Z,73.63
2023-04-16T05:47:57.909Z,73.57
2023-04-16T05:50:27.610Z,73.52
2023-04-16T05:52:56.917Z,73.42
2023-04-16T05:55:28.531Z,73.35
2023-04-16T05:57:57.907Z,72.94
2023-04-16T06:00:29.098Z,72.88
2023-04-16T06:02:58.551Z,72.69
2023-04-16T06:05:27.897Z,72.52
2023-04-16T06:07:57.268Z,72.81
2023-04-16T06:10:28.813Z,72.86
2023-04-16T06:12:58.238Z,72.76
2023-04-16T06:15:27.528Z,72.57
2023-04-16T06:17:58.031Z,72.19
2023-04-16T06:20:28.812Z,72.03
2023-04-16T06:22:58.567Z,72.08
2023-04-16T06:25:27.942Z,71.83
2023-04-16T06:27:57.641Z,71.43
2023-04-16T06:30:27.019Z,70.88
2023-04-16T06:32:56.478Z,70.23
2023-04-16T06:35:25.902Z,70.57
2023-04-16T06:37:55.160Z,69.78
2023-04-16T06:40:24.468Z,69.16
2023-04-16T06:42:54.328Z,68.88
2023-04-16T06:45:23.652Z,68.17
2023-04-16T06:47:53.060Z,67.98
2023-04-16T06:50:25.132Z,67.46
2023-04-16T06:52:54.142Z,66.99
2023-04-16T06:55:23.396Z,65.65
2023-04-16T06:57:54.894Z,63.61
2023-04-16T07:00:24.293Z,63.44
2023-04-16T07:02:55.201Z,64.01
2023-04-16T07:05:27.650Z,63.27
2023-04-16T07:07:58.129Z,63.34
2023-04-16T07:10:27.791Z,62.73
2023-04-16T07:12:57.548Z,62.32
2023-04-16T07:15:27.150Z,62.07
2023-04-16T07:17:57.101Z,62.00
2023-04-16T07:20:26.822Z,61.09
2023-04-16T07:22:57.095Z,61.38
2023-04-16T07:25:27.370Z,61.21
2023-04-16T07:27:56.999Z,60.87
2023-04-16T07:30:34.874Z,61.08
2023-04-16T07:33:04.813Z,61.02
2023-04-16T07:35:34.270Z,60.51
2023-04-16T07:38:03.725Z,60.38
2023-04-16T07:40:33.398Z,58.79
2023-04-16T07:43:03.079Z,57.64
2023-04-16T07:45:35.033Z,57.03
2023-04-16T07:48:04.509Z,55.67
2023-04-16T07:50:33.105Z,54.88
2023-04-16T14:07:06.896Z,36.19
2023-04-16T14:09:37.579Z,36.39
2023-04-16T14:12:08.254Z,39.37
2023-04-16T14:14:38.569Z,41.96
2023-04-16T14:17:09.035Z,43.52
2023-04-16T14:19:39.443Z,45.83
2023-04-16T14:22:09.859Z,47.61
2023-04-16T14:24:40.070Z,49.09
2023-04-16T14:27:10.848Z,50.83
2023-04-16T14:29:41.893Z,52.66
2023-04-16T14:32:12.029Z,54.22
2023-04-16T14:34:41.673Z,54.68
2023-04-16T14:37:11.784Z,54.98
2023-04-16T14:39:41.961Z,55.54
2023-04-16T14:42:11.886Z,56.23
2023-04-16T14:44:41.669Z,56.46
2023-04-16T14:47:11.765Z,56.15
2023-04-16T14:49:41.751Z,56.55
2023-04-16T14:52:12.019Z,55.91
2023-04-16T14:54:41.670Z,57.30
2023-04-16T14:57:10.711Z,58.22
2023-04-16T14:59:40.611Z,59.34
2023-04-16T15:02:11.275Z,59.68
2023-04-16T15:04:41.145Z,60.31
2023-04-16T15:07:11.699Z,61.17
2023-04-16T15:09:41.579Z,61.63
2023-04-16T15:12:11.439Z,61.90
2023-04-16T15:14:41.167Z,61.41
2023-04-16T15:17:11.621Z,61.67
2023-04-16T15:19:41.319Z,62.15
2023-04-16T15:22:11.370Z,62.05
2023-04-16T15:24:41.588Z,62.27
2023-04-16T15:27:12.233Z,61.74
2023-04-16T15:29:42.201Z,61.40
2023-04-16T15:32:12.786Z,61.77
2023-04-16T15:34:42.478Z,61.72
2023-04-16T15:37:12.041Z,61.93
2023-04-16T15:39:42.095Z,61.72
2023-04-16T15:42:11.968Z,61.53
2023-04-16T15:44:41.584Z,61.37
2023-04-16T15:47:11.237Z,61.11
2023-04-16T15:49:41.046Z,61.13
2023-04-16T15:52:12.493Z,61.00
2023-04-16T15:54:42.764Z,60.65
2023-04-16T15:57:12.389Z,60.50
2023-04-16T15:59:41.317Z,60.29
2023-04-16T16:02:10.829Z,60.15
2023-04-16T16:04:47.227Z,59.44
2023-04-16T16:07:20.366Z,59.80
2023-04-16T16:09:53.501Z,60.11
2023-04-16T16:12:23.878Z,60.05
2023-04-16T16:14:53.698Z,60.30
2023-04-16T16:17:23.374Z,60.47
2023-04-16T16:19:53.682Z,60.28
2023-04-16T16:22:24.293Z,60.09
2023-04-16T16:24:56.802Z,59.57
2023-04-16T16:27:27.350Z,58.91
2023-04-16T16:29:56.204Z,58.95
2023-04-16T16:32:25.788Z,59.13
2023-04-16T16:34:55.434Z,59.15
2023-04-16T16:37:25.070Z,60.07
2023-04-16T16:39:54.643Z,60.55
2023-04-16T16:42:24.393Z,61.43
2023-04-16T16:44:56.020Z,61.63
2023-04-16T16:47:27.422Z,61.47
2023-04-16T16:49:57.757Z,61.97
2023-04-16T16:52:28.036Z,62.50
2023-04-16T16:54:58.740Z,62.72
2023-04-16T16:57:28.747Z,64.25
2023-04-16T16:59:59.301Z,64.42
2023-04-16T17:02:29.929Z,64.68
2023-04-16T17:05:01.772Z,64.73
2023-04-16T17:07:32.885Z,64.12
2023-04-16T17:10:06.080Z,64.44
2023-04-16T17:12:37.295Z,64.46
2023-04-16T17:15:08.554Z,63.94
2023-04-16T17:17:39.185Z,64.76
2023-04-16T17:20:11.308Z,64.38
2023-04-16T17:22:41.221Z,63.93
2023-04-16T17:25:11.923Z,64.07
2023-04-16T17:27:42.407Z,64.42
2023-04-16T17:30:12.961Z,65.53
2023-04-16T17:32:42.583Z,67.64
2023-04-16T17:35:14.319Z,69.44
2023-04-16T17:37:44.909Z,70.93
2023-04-16T17:40:18.041Z,71.55
2023-04-16T17:42:50.387Z,72.00
2023-04-16T17:45:20.124Z,72.28
2023-04-16T17:47:50.441Z,72.57
2023-04-16T17:50:20.044Z,72.33
2023-04-16T17:52:49.634Z,72.48
2023-04-16T17:55:19.195Z,73.14
2023-04-16T17:57:49.507Z,74.88
2023-04-16T18:00:20.204Z,74.70
2023-04-16T18:02:50.121Z,73.97
2023-04-16T18:05:20.323Z,74.32
2023-04-16T18:07:51.035Z,74.69
2023-04-16T18:10:21.265Z,74.37
2023-04-16T18:12:51.112Z,74.95
2023-04-16T18:15:21.313Z,75.55
2023-04-16T18:17:52.035Z,75.53
2023-04-16T18:20:23.713Z,75.88
2023-04-16T18:22:54.348Z,76.33
2023-04-16T18:25:33.924Z,75.52
2023-04-16T18:28:06.773Z,75.26
2023-04-16T18:30:40.466Z,75.17
2023-04-16T18:33:42.711Z,75.20
2023-04-16T18:36:05.015Z,75.00
2023-04-16T18:38:35.086Z,74.99
2023-04-16T18:41:05.379Z,74.95
2023-04-16T18:43:35.048Z,74.75
2023-04-16T18:46:04.573Z,74.66
2023-04-16T18:48:34.280Z,74.69
2023-04-16T18:51:03.260Z,74.55
2023-04-16T18:53:33.815Z,74.55
2023-04-16T18:56:04.583Z,74.62
2023-04-16T18:58:34.918Z,74.64
2023-04-16T19:01:05.365Z,74.63
2023-04-16T19:03:35.746Z,74.84
2023-04-16T19:06:06.459Z,75.22
2023-04-16T19:08:35.988Z,75.64
2023-04-16T19:11:05.609Z,75.45
2023-04-16T19:13:36.296Z,75.75
2023-04-16T19:16:11.920Z,76.67
2023-04-16T19:18:41.015Z,76.47
2023-04-16T19:21:12.358Z,77.05
2023-04-16T19:23:41.952Z,77.74
2023-04-16T19:26:11.508Z,77.95
2023-04-16T19:28:42.957Z,77.81
2023-04-16T19:31:12.618Z,78.01
2023-04-16T19:33:42.718Z,78.11
2023-04-16T19:36:12.599Z,78.11
2023-04-16T19:38:42.106Z,78.54
2023-04-16T19:41:12.123Z,78.57
2023-04-16T19:43:42.101Z,79.43
2023-04-16T19:46:11.568Z,79.51
2023-04-16T19:48:41.672Z,79.83
2023-04-16T19:51:11.973Z,80.23
2023-04-16T19:53:42.709Z,80.62
2023-04-16T19:56:14.208Z,80.28
2023-04-16T19:58:44.629Z,80.39
2023-04-16T20:01:14.954Z,80.21
2023-04-16T20:03:45.036Z,80.77
2023-04-16T20:06:15.122Z,80.98
2023-04-16T20:08:45.256Z,81.05
2023-04-16T20:11:15.413Z,81.05
2023-04-16T20:13:49.067Z,80.91
2023-04-16T20:16:24.375Z,80.88
2023-04-16T20:18:57.378Z,81.00
2023-04-16T20:21:30.444Z,81.39
2023-04-16T20:24:03.358Z,81.18
2023-04-16T20:26:37.107Z,81.25
2023-04-16T20:29:07.029Z,81.28
2023-04-16T20:31:37.356Z,81.37
2023-04-16T20:34:07.749Z,81.52
2023-04-16T20:36:37.677Z,81.39
2023-04-16T20:39:08.604Z,81.41
2023-04-16T20:41:44.320Z,81.14
2023-04-16T20:44:19.665Z,81.25
2023-04-16T20:46:51.120Z,81.11
2023-04-16T20:49:20.029Z,81.51
2023-04-16T20:51:50.190Z,81.28
2023-04-16T20:54:20.178Z,81.35
2023-04-16T20:56:50.855Z,81.27
2023-04-16T20:59:20.881Z,81.44
2023-04-16T21:01:50.931Z,81.74
2023-04-16T21:04:21.793Z,81.71
2023-04-16T21:06:54.095Z,81.83
2023-04-16T21:09:24.390Z,81.69
2023-04-16T21:11:53.982Z,82.01
2023-04-16T21:14:24.103Z,82.22
2023-04-16T21:16:53.599Z,82.52
2023-04-16T21:19:23.675Z,82.44
2023-04-16T21:21:53.666Z,82.67
2023-04-16T21:24:23.759Z,82.94
2023-04-16T21:26:53.280Z,83.07
2023-04-16T21:29:22.754Z,83.48
2023-04-16T21:31:52.773Z,83.15
2023-04-16T21:34:21.801Z,83.05
2023-04-16T21:36:51.866Z,83.61
2023-04-16T21:39:22.162Z,83.49
2023-04-16T21:41:51.663Z,83.29
2023-04-16T21:44:21.631Z,83.53
2023-04-16T21:46:52.599Z,83.37
2023-04-16T21:49:22.707Z,83.42
2023-04-16T21:51:59.737Z,83.63
2023-04-16T21:54:29.203Z,83.28
2023-04-16T21:56:59.146Z,82.99
2023-04-16T21:59:29.204Z,83.03
2023-04-16T22:01:58.713Z,82.66
2023-04-16T22:04:37.525Z,82.65
2023-04-16T22:07:12.173Z,82.66
2023-04-16T22:09:44.961Z,82.64
2023-04-16T22:12:15.871Z,82.14
2023-04-16T22:14:59.775Z,82.54
2023-04-16T22:17:34.854Z,82.27
2023-04-16T22:20:12.696Z,82.38
2023-04-16T22:22:43.285Z,82.76
2023-04-16T22:25:13.727Z,82.79
2023-04-16T22:27:44.098Z,82.72
2023-04-16T22:30:14.219Z,82.96
2023-04-16T22:32:44.217Z,82.83
2023-04-16T22:35:13.934Z,82.66
2023-04-16T22:37:43.728Z,82.85
2023-04-16T22:40:12.656Z,82.50
2023-04-16T22:42:42.839Z,82.54
2023-04-16T22:45:13.213Z,82.44
2023-04-16T22:47:43.694Z,82.50
2023-04-16T22:50:13.074Z,82.37
2023-04-16T22:52:42.528Z,82.45
2023-04-16T22:55:12.313Z,82.44
2023-04-16T22:57:42.525Z,82.66
2023-04-16T23:00:18.061Z,82.66
2023-04-16T23:02:48.388Z,82.56
2023-04-16T23:05:18.506Z,82.57
2023-04-16T23:07:48.751Z,82.39
2023-04-16T23:10:18.405Z,82.29
2023-04-16T23:12:48.101Z,82.27
2023-04-16T23:15:18.606Z,82.15
2023-04-16T23:17:48.551Z,82.04
2023-04-16T23:20:18.731Z,81.87
2023-04-16T23:22:48.966Z,81.78
2023-04-16T23:25:18.665Z,81.94
2023-04-16T23:27:49.663Z,81.86
2023-04-16T23:30:19.743Z,81.81
2023-04-16T23:32:50.216Z,81.98
2023-04-16T23:35:23.738Z,81.84
2023-04-16T23:37:53.357Z,81.64
2023-04-16T23:40:23.359Z,81.17
2023-04-16T23:42:53.359Z,81.10
2023-04-16T23:45:22.876Z,81.23
2023-04-16T23:47:53.168Z,81.40
2023-04-16T23:50:23.206Z,81.36
2023-04-16T23:52:53.235Z,81.10
2023-04-16T23:55:23.022Z,80.94
2023-04-16T23:57:53.130Z,80.82
